createdAt,value
2018-12-05T00:00:51.002Z,0.10
2018-12-05T00:03:18.485Z,0.10
2018-12-05T00:05:45.910Z,0.10
2018-12-05T00:08:13.418Z,0.10
2018-12-05T00:10:40.865Z,0.00
2018-12-05T00:13:08.379Z,0.00
2018-12-05T00:15:35.876Z,0.00
2018-12-05T00:18:03.455Z,-0.10
2018-12-05T00:20:30.931Z,0.00
2018-12-05T00:22:58.420Z,-0.10
2018-12-05T00:25:25.855Z,-0.10
2018-12-05T00:27:53.351Z,-0.20
2018-12-05T00:30:20.847Z,-0.20
2018-12-05T00:32:48.311Z,-0.20
2018-12-05T00:35:15.770Z,-0.20
2018-12-05T00:37:43.267Z,-0.20
2018-12-05T00:40:11.379Z,-0.20
2018-12-05T00:42:39.027Z,-0.30
2018-12-05T00:45:06.906Z,-0.30
2018-12-05T00:47:34.484Z,-0.30
2018-12-05T00:50:01.997Z,-0.40
2018-12-05T00:52:29.425Z,-0.40
2018-12-05T00:54:56.909Z,-0.50
2018-12-05T00:57:24.388Z,-0.50
2018-12-05T00:59:51.848Z,-0.50
2018-12-05T01:02:19.324Z,-0.50
2018-12-05T01:04:46.911Z,-0.60
2018-12-05T01:07:14.499Z,-0.70
2018-12-05T01:09:42.030Z,-0.70
2018-12-05T01:12:09.999Z,-0.70
2018-12-05T01:14:37.539Z,-0.80
2018-12-05T01:17:05.121Z,-0.90
2018-12-05T01:19:32.748Z,-0.90
2018-12-05T01:22:00.230Z,-1.00
2018-12-05T01:24:27.722Z,-1.10
2018-12-05T01:26:55.199Z,-1.30
2018-12-05T01:29:22.848Z,-1.40
2018-12-05T01:31:50.442Z,-1.50
2018-12-05T01:34:18.026Z,-1.60
2018-12-05T01:36:45.515Z,-1.70
2018-12-05T01:39:13.103Z,-1.80
2018-12-05T01:41:40.603Z,-2.00
2018-12-05T01:44:08.211Z,-2.20
2018-12-05T01:46:35.716Z,-2.30
2018-12-05T01:49:03.340Z,-2.40
2018-12-05T01:51:30.821Z,-2.50
2018-12-05T01:53:58.455Z,-2.50
2018-12-05T01:56:25.938Z,-2.50
2018-12-05T01:58:53.511Z,-2.60
2018-12-05T02:01:20.995Z,-2.60
2018-12-05T02:03:48.462Z,-2.60
2018-12-05T02:06:16.000Z,-2.60
2018-12-05T02:08:43.676Z,-2.70
2018-12-05T02:11:11.220Z,-2.70
2018-12-05T02:13:38.728Z,-2.80
2018-12-05T02:16:06.187Z,-2.90
2018-12-05T02:18:33.938Z,-3.00
2018-12-05T02:21:01.407Z,-3.10
2018-12-05T02:23:28.923Z,-3.20
2018-12-05T02:25:56.390Z,-3.20
2018-12-05T02:28:23.852Z,-3.30
2018-12-05T02:30:51.322Z,-3.30
2018-12-05T02:33:18.758Z,-3.30
2018-12-05T02:35:46.248Z,-3.30
2018-12-05T02:38:13.718Z,-3.30
2018-12-05T02:40:41.219Z,-3.00
2018-12-05T02:43:08.730Z,-2.90
2018-12-05T02:45:36.226Z,-3.00
2018-12-05T02:48:03.724Z,-3.00
2018-12-05T02:50:31.194Z,-3.10
2018-12-05T02:52:58.699Z,-3.20
2018-12-05T02:55:26.208Z,-3.10
2018-12-05T02:57:53.707Z,-3.00
2018-12-05T03:00:21.251Z,-2.80
2018-12-05T03:02:48.716Z,-2.70
2018-12-05T03:05:16.496Z,-2.60
2018-12-05T03:07:44.105Z,-2.50
2018-12-05T03:10:11.699Z,-2.40
2018-12-05T03:12:39.323Z,-2.40
2018-12-05T03:15:06.942Z,-2.50
2018-12-05T03:17:34.427Z,-2.30
2018-12-05T03:20:01.911Z,-2.20
2018-12-05T03:22:29.524Z,-2.00
2018-12-05T03:24:57.076Z,-1.90
2018-12-05T03:27:24.593Z,-1.90
2018-12-05T03:29:52.103Z,-1.90
2018-12-05T03:32:19.596Z,-1.90
2018-12-05T03:34:47.157Z,-2.00
2018-12-05T03:37:14.601Z,-2.10
2018-12-05T03:39:42.094Z,-2.30
2018-12-05T03:42:09.723Z,-2.40
2018-12-05T03:44:37.247Z,-2.20
2018-12-05T03:47:04.971Z,-2.10
2018-12-05T03:49:32.621Z,-2.00
2018-12-05T03:52:00.292Z,-2.00
2018-12-05T03:54:27.972Z,-2.10
2018-12-05T03:56:55.408Z,-2.20
2018-12-05T04:02:00.811Z,-2.70
2018-12-05T04:04:28.297Z,-2.90
2018-12-05T04:06:55.764Z,-3.10
2018-12-05T04:09:23.291Z,-3.20
2018-12-05T04:11:50.771Z,-3.30
2018-12-05T04:14:18.300Z,-3.40
2018-12-05T04:16:45.755Z,-3.50
2018-12-05T04:19:13.229Z,-3.50
2018-12-05T04:21:40.708Z,-3.50
2018-12-05T04:24:08.372Z,-3.60
2018-12-05T04:26:35.939Z,-3.60
2018-12-05T04:29:03.568Z,-3.70
2018-12-05T04:31:31.049Z,-3.70
2018-12-05T04:33:58.546Z,-3.80
2018-12-05T04:36:26.215Z,-3.80
2018-12-05T04:38:53.746Z,-3.90
2018-12-05T04:41:21.217Z,-4.00
2018-12-05T04:43:48.702Z,-4.00
2018-12-05T04:46:16.178Z,-4.10
2018-12-05T04:48:43.738Z,-4.10
2018-12-05T04:51:11.183Z,-4.20
2018-12-05T04:53:38.667Z,-4.20
2018-12-05T04:56:06.152Z,-4.30
2018-12-05T04:58:33.714Z,-4.30
2018-12-05T05:01:01.164Z,-4.40
2018-12-05T05:03:28.642Z,-4.50
2018-12-05T05:05:56.168Z,-4.50
2018-12-05T05:08:23.602Z,-4.60
2018-12-05T05:10:51.069Z,-4.60
2018-12-05T05:13:18.523Z,-4.60
2018-12-05T05:15:45.995Z,-4.60
2018-12-05T05:18:13.460Z,-4.70
2018-12-05T05:20:40.956Z,-4.70
2018-12-05T05:23:08.392Z,-4.70
2018-12-05T05:25:35.887Z,-4.70
2018-12-05T05:28:03.479Z,-4.80
2018-12-05T05:30:31.062Z,-4.80
2018-12-05T05:32:58.562Z,-4.80
2018-12-05T05:35:26.015Z,-4.70
2018-12-05T05:37:53.481Z,-4.70
2018-12-05T05:40:20.951Z,-4.80
2018-12-05T05:42:48.422Z,-4.80
2018-12-05T05:45:16.010Z,-4.90
2018-12-05T05:47:43.474Z,-4.90
2018-12-05T05:50:11.392Z,-4.90
2018-12-05T05:52:38.943Z,-5.00
2018-12-05T05:55:06.520Z,-5.00
2018-12-05T05:57:33.994Z,-5.00
2018-12-05T06:00:01.426Z,-5.00
2018-12-05T06:02:28.995Z,-5.00
2018-12-05T06:04:56.426Z,-5.10
2018-12-05T06:07:23.898Z,-5.10
2018-12-05T06:09:51.571Z,-5.20
2018-12-05T06:12:19.052Z,-5.20
2018-12-05T06:14:46.503Z,-5.20
2018-12-05T06:17:13.990Z,-5.30
2018-12-05T06:19:41.450Z,-5.20
2018-12-05T06:22:08.966Z,-5.30
2018-12-05T06:24:36.523Z,-5.30
2018-12-05T06:27:03.992Z,-5.30
2018-12-05T06:29:31.591Z,-5.40
2018-12-05T06:31:59.247Z,-5.40
2018-12-05T06:34:26.714Z,-5.40
2018-12-05T06:36:54.204Z,-5.40
2018-12-05T06:39:21.692Z,-5.40
2018-12-05T06:41:49.230Z,-5.40
2018-12-05T06:44:16.784Z,-5.40
2018-12-05T06:46:44.297Z,-5.40
2018-12-05T06:49:11.864Z,-5.50
2018-12-05T06:51:39.332Z,-5.50
2018-12-05T06:54:06.794Z,-5.50
2018-12-05T06:56:34.303Z,-5.50
2018-12-05T06:59:01.726Z,-5.50
2018-12-05T07:01:29.294Z,-5.50
2018-12-05T07:03:56.766Z,-5.50
2018-12-05T07:06:24.341Z,-5.60
2018-12-05T07:08:51.846Z,-5.60
2018-12-05T07:11:19.320Z,-5.60
2018-12-05T07:13:46.766Z,-5.60
2018-12-05T07:16:14.329Z,-5.70
2018-12-05T07:18:41.951Z,-5.60
2018-12-05T07:21:09.432Z,-5.60
2018-12-05T07:23:36.927Z,-5.60
2018-12-05T07:26:04.393Z,-5.70
2018-12-05T07:28:31.837Z,-5.60
2018-12-05T07:30:59.308Z,-5.60
2018-12-05T07:33:26.949Z,-5.60
2018-12-05T07:35:54.387Z,-5.70
2018-12-05T07:38:21.832Z,-5.60
2018-12-05T07:40:49.295Z,-5.60
2018-12-05T07:43:16.755Z,-5.50
2018-12-05T07:45:44.260Z,-5.60
2018-12-05T07:48:11.739Z,-5.60
2018-12-05T07:50:39.194Z,-5.60
2018-12-05T07:53:06.664Z,-5.60
2018-12-05T07:55:34.106Z,-5.60
2018-12-05T07:58:01.614Z,-5.70
2018-12-05T08:00:29.077Z,-5.70
2018-12-05T08:02:56.594Z,-5.70
2018-12-05T08:05:24.108Z,-5.60
2018-12-05T08:07:51.538Z,-5.60
2018-12-05T08:10:19.028Z,-5.60
2018-12-05T08:12:46.520Z,-5.50
2018-12-05T08:15:14.235Z,-5.50
2018-12-05T08:17:41.696Z,-5.50
2018-12-05T08:20:09.250Z,-5.50
2018-12-05T08:22:36.738Z,-5.50
2018-12-05T08:25:05.178Z,-5.50
2018-12-05T08:27:32.670Z,-5.40
2018-12-05T08:30:00.102Z,-5.40
2018-12-05T08:32:27.744Z,-5.30
2018-12-05T08:34:55.187Z,-5.30
2018-12-05T08:37:22.653Z,-5.20
2018-12-05T08:39:50.131Z,-5.20
2018-12-05T08:42:17.579Z,-5.10
2018-12-05T08:44:45.074Z,-5.10
2018-12-05T08:47:12.621Z,-5.00
2018-12-05T08:49:40.243Z,-4.90
2018-12-05T08:52:07.829Z,-4.90
2018-12-05T08:54:35.307Z,-4.80
2018-12-05T08:57:02.923Z,-4.80
2018-12-05T08:59:30.420Z,-4.70
2018-12-05T09:01:57.987Z,-4.60
2018-12-05T09:04:25.512Z,-4.60
2018-12-05T09:06:52.962Z,-4.50
2018-12-05T09:09:20.432Z,-4.40
2018-12-05T09:11:48.151Z,-4.40
2018-12-05T09:14:15.637Z,-4.20
2018-12-05T09:16:43.098Z,-4.00
2018-12-05T09:19:10.559Z,-3.90
2018-12-05T09:21:38.016Z,-3.90
2018-12-05T09:24:05.633Z,-3.80
2018-12-05T09:26:33.097Z,-3.80
2018-12-05T09:29:00.596Z,-3.80
2018-12-05T09:31:28.045Z,-3.70
2018-12-05T09:33:55.716Z,-3.70
2018-12-05T09:36:23.285Z,-3.70
2018-12-05T09:38:50.765Z,-3.60
2018-12-05T09:41:18.230Z,-3.60
2018-12-05T09:43:45.722Z,-3.50
2018-12-05T09:46:13.272Z,-3.40
2018-12-05T09:48:40.773Z,-3.40
2018-12-05T09:51:08.249Z,-3.30
2018-12-05T09:53:35.702Z,-3.20
2018-12-05T09:56:03.305Z,-3.20
2018-12-05T09:58:30.751Z,-3.10
2018-12-05T10:00:58.263Z,-3.10
2018-12-05T10:03:25.747Z,-3.00
2018-12-05T10:05:53.342Z,-2.90
2018-12-05T10:08:20.788Z,-2.90
2018-12-05T10:10:48.277Z,-2.80
2018-12-05T10:13:15.748Z,-2.70
2018-12-05T10:15:43.241Z,-2.60
2018-12-05T10:18:10.695Z,-2.40
2018-12-05T10:20:38.142Z,-2.40
2018-12-05T10:23:05.638Z,-2.30
2018-12-05T10:25:33.108Z,-2.10
2018-12-05T10:28:00.725Z,-2.10
2018-12-05T10:30:28.222Z,-2.10
2018-12-05T10:32:55.671Z,-2.10
2018-12-05T10:35:23.167Z,-2.00
2018-12-05T10:37:50.618Z,-2.00
2018-12-05T10:40:18.074Z,-1.90
2018-12-05T10:42:45.541Z,-1.80
2018-12-05T10:45:13.355Z,-1.70
2018-12-05T10:47:41.442Z,-1.60
2018-12-05T10:50:09.186Z,-1.50
2018-12-05T10:52:36.672Z,-1.40
2018-12-05T10:55:04.897Z,-1.40
2018-12-05T10:57:32.359Z,-1.30
2018-12-05T10:59:59.839Z,-1.20
2018-12-05T11:02:33.278Z,-1.10
2018-12-05T11:05:06.573Z,-1.10
2018-12-05T11:08:41.015Z,-1.00
2018-12-05T11:11:14.224Z,-1.00
2018-12-05T11:13:47.514Z,-0.90
2018-12-05T11:16:20.810Z,-0.80
2018-12-05T11:18:54.090Z,-0.80
2018-12-05T11:21:27.258Z,-0.70
2018-12-05T11:24:04.380Z,-0.60
2018-12-05T11:26:33.868Z,-0.50
2018-12-05T11:29:01.353Z,-0.40
2018-12-05T11:31:28.851Z,-0.30
2018-12-05T11:33:56.430Z,-0.30
2018-12-05T11:36:23.931Z,-0.20
2018-12-05T11:38:51.409Z,-0.20
2018-12-05T11:41:18.988Z,-0.20
2018-12-05T11:43:46.454Z,-0.20
2018-12-05T11:46:13.971Z,-0.20
2018-12-05T11:48:41.450Z,-0.10
2018-12-05T11:51:08.946Z,-0.10
2018-12-05T11:53:36.424Z,0.00
2018-12-05T11:56:03.918Z,0.00
2018-12-05T11:58:31.496Z,0.10
2018-12-05T12:00:59.187Z,0.10
2018-12-05T12:03:26.635Z,0.00
2018-12-05T12:05:54.124Z,0.10
2018-12-05T12:08:21.723Z,0.20
2018-12-05T12:10:49.304Z,0.30
2018-12-05T12:13:16.863Z,0.40
2018-12-05T12:15:44.541Z,0.50
2018-12-05T12:18:11.999Z,0.50
2018-12-05T12:20:39.455Z,0.60
2018-12-05T12:23:06.977Z,0.60
2018-12-05T12:25:34.426Z,0.70
2018-12-05T12:28:01.923Z,0.70
2018-12-05T12:30:29.379Z,0.70
2018-12-05T12:32:56.870Z,0.70
2018-12-05T12:35:24.358Z,0.70
2018-12-05T12:37:51.795Z,0.70
2018-12-05T12:40:19.235Z,0.70
2018-12-05T12:42:46.891Z,0.80
2018-12-05T12:45:14.344Z,0.80
2018-12-05T12:47:41.803Z,0.80
2018-12-05T12:50:09.295Z,0.80
2018-12-05T12:52:36.794Z,0.80
2018-12-05T12:55:05.153Z,0.80
2018-12-05T12:57:32.630Z,0.90
2018-12-05T13:00:00.122Z,1.00
2018-12-05T13:02:27.704Z,1.00
2018-12-05T13:04:55.151Z,1.00
2018-12-05T13:07:22.638Z,1.00
2018-12-05T13:09:50.115Z,0.90
2018-12-05T13:12:23.452Z,0.90
2018-12-05T13:14:50.933Z,0.90
2018-12-05T13:17:18.623Z,0.80
2018-12-05T13:19:46.106Z,0.80
2018-12-05T13:22:13.577Z,0.80
2018-12-05T13:24:41.042Z,0.80
2018-12-05T13:27:08.494Z,0.80
2018-12-05T13:29:35.988Z,0.80
2018-12-05T13:32:03.699Z,0.70
2018-12-05T13:34:31.174Z,0.60
2018-12-05T13:36:58.868Z,0.60
2018-12-05T13:39:26.329Z,0.50
2018-12-05T13:41:53.791Z,0.50
2018-12-05T13:44:21.232Z,0.50
2018-12-05T13:46:48.733Z,0.30
2018-12-05T13:49:16.203Z,0.30
2018-12-05T13:51:43.765Z,0.20
2018-12-05T13:54:11.239Z,0.10
2018-12-05T13:56:38.924Z,0.00
2018-12-05T13:59:06.523Z,-0.10
2018-12-05T14:01:34.119Z,-0.20
2018-12-05T14:04:01.651Z,-0.30
2018-12-05T14:06:29.098Z,-0.40
2018-12-05T14:08:56.545Z,-0.40
2018-12-05T14:11:24.027Z,-0.40
2018-12-05T14:13:51.458Z,-0.40
2018-12-05T14:16:19.056Z,-0.30
2018-12-05T14:18:46.534Z,-0.30
2018-12-05T14:21:14.087Z,-0.40
2018-12-05T14:23:41.531Z,-0.40
2018-12-05T14:26:09.119Z,-0.30
2018-12-05T14:28:36.595Z,-0.20
2018-12-05T14:31:04.095Z,-0.20
2018-12-05T14:33:31.538Z,-0.10
2018-12-05T14:35:59.146Z,0.00
2018-12-05T14:38:26.606Z,0.00
2018-12-05T14:40:54.055Z,-0.10
2018-12-05T14:43:21.547Z,-0.40
2018-12-05T14:45:49.019Z,-0.90
2018-12-05T14:48:16.523Z,-1.20
2018-12-05T14:50:43.992Z,-1.30
2018-12-05T14:53:12.052Z,-1.40
2018-12-05T14:55:39.679Z,-1.50
2018-12-05T14:58:07.150Z,-1.60
2018-12-05T15:00:34.587Z,-1.60
2018-12-05T15:03:02.068Z,-1.60
2018-12-05T15:05:29.588Z,-1.70
2018-12-05T15:07:57.206Z,-1.70
2018-12-05T15:10:24.649Z,-1.70
2018-12-05T15:12:52.130Z,-1.80
2018-12-05T15:15:19.624Z,-1.80
2018-12-05T15:17:47.093Z,-1.80
2018-12-05T15:20:14.641Z,-1.80
2018-12-05T15:22:42.075Z,-1.90
2018-12-05T15:25:10.195Z,-1.80
2018-12-05T15:27:37.692Z,-1.80
2018-12-05T15:30:05.408Z,-1.80
2018-12-05T15:32:32.934Z,-1.80
2018-12-05T15:35:00.609Z,-1.80
2018-12-05T15:37:28.075Z,-1.70
2018-12-05T15:39:55.583Z,-1.70
2018-12-05T15:42:23.150Z,-1.70
2018-12-05T15:44:50.758Z,-1.80
2018-12-05T15:47:18.220Z,-1.80
2018-12-05T15:49:45.714Z,-1.80
2018-12-05T15:52:13.159Z,-1.80
2018-12-05T15:54:41.228Z,-1.80
2018-12-05T15:57:09.989Z,-2.00
2018-12-05T15:59:37.987Z,-2.00
2018-12-05T16:02:05.719Z,-2.10
2018-12-05T16:04:33.163Z,-2.20
2018-12-05T16:07:00.813Z,-2.10
2018-12-05T16:09:28.292Z,-2.10
2018-12-05T16:11:55.747Z,-2.10
2018-12-05T16:14:23.239Z,-2.10
2018-12-05T16:16:50.725Z,-2.20
2018-12-05T16:19:18.244Z,-2.10
2018-12-05T16:21:45.697Z,-2.10
2018-12-05T16:24:13.160Z,-2.10
2018-12-05T16:26:41.059Z,-2.00
2018-12-05T16:29:08.724Z,-2.10
2018-12-05T16:31:36.237Z,-2.00
2018-12-05T16:34:03.828Z,-2.00
2018-12-05T16:36:31.290Z,-1.90
2018-12-05T16:38:58.755Z,-1.90
2018-12-05T16:41:26.237Z,-1.90
2018-12-05T16:43:53.687Z,-1.90
2018-12-05T16:46:21.193Z,-1.90
2018-12-05T16:48:48.707Z,-1.80
2018-12-05T16:51:16.157Z,-1.70
2018-12-05T16:53:43.598Z,-1.50
2018-12-05T16:56:11.148Z,-1.50
2018-12-05T16:58:38.701Z,-1.60
2018-12-05T17:01:06.324Z,-1.70
2018-12-05T17:03:33.900Z,-1.80
2018-12-05T17:06:01.478Z,-1.80
2018-12-05T17:08:28.986Z,-1.80
2018-12-05T17:10:56.430Z,-1.70
2018-12-05T17:13:23.935Z,-1.70
2018-12-05T17:15:51.440Z,-1.60
2018-12-05T17:18:19.256Z,-1.50
2018-12-05T17:20:46.730Z,-1.40
2018-12-05T17:23:14.474Z,-1.20
2018-12-05T17:25:41.995Z,-1.20
2018-12-05T17:28:09.515Z,-1.10
2018-12-05T17:30:36.954Z,-1.00
2018-12-05T17:33:04.500Z,-0.70
2018-12-05T17:35:32.538Z,-0.70
2018-12-05T17:37:59.991Z,-0.70
2018-12-05T17:40:27.499Z,-0.80
2018-12-05T17:42:54.960Z,-0.70
2018-12-05T17:45:22.414Z,-0.70
2018-12-05T17:47:49.967Z,-0.70
2018-12-05T17:50:17.534Z,-0.60
2018-12-05T17:52:44.971Z,-0.70
2018-12-05T17:55:12.483Z,-0.60
2018-12-05T17:57:39.973Z,-0.50
2018-12-05T18:00:07.827Z,-0.40
2018-12-05T18:02:35.324Z,-0.30
2018-12-05T18:05:03.322Z,-0.20
2018-12-05T18:07:30.868Z,-0.20
2018-12-05T18:09:58.337Z,-0.20
2018-12-05T18:12:25.820Z,-0.20
2018-12-05T18:14:53.298Z,-0.10
2018-12-05T18:17:20.846Z,-0.10
2018-12-05T18:19:48.330Z,-0.10
2018-12-05T18:22:15.815Z,-0.10
2018-12-05T18:24:43.451Z,-0.20
2018-12-05T18:27:10.938Z,-0.10
2018-12-05T18:29:38.434Z,-0.20
2018-12-05T18:32:05.923Z,-0.20
2018-12-05T18:34:33.462Z,-0.10
2018-12-05T18:37:00.944Z,0.00
2018-12-05T18:39:28.464Z,0.20
2018-12-05T18:41:55.990Z,0.10
2018-12-05T18:44:23.485Z,0.10
2018-12-05T18:46:50.964Z,0.10
2018-12-05T18:49:18.661Z,0.10
2018-12-05T18:51:46.143Z,0.20
2018-12-05T18:54:13.636Z,0.30
2018-12-05T18:56:41.219Z,0.30
2018-12-05T18:59:08.686Z,0.30
2018-12-05T19:01:36.183Z,0.20
2018-12-05T19:04:03.875Z,0.20
2018-12-05T19:06:31.321Z,0.10
2018-12-05T19:08:58.896Z,0.20
2018-12-05T19:11:26.539Z,0.30
2018-12-05T19:13:59.754Z,0.30
2018-12-05T19:16:27.218Z,0.40
2018-12-05T19:18:54.820Z,0.50
2018-12-05T19:21:22.574Z,0.60
2018-12-05T19:23:50.031Z,0.60
2018-12-05T19:26:17.607Z,0.70
2018-12-05T19:28:45.171Z,0.80
2018-12-05T19:31:19.240Z,0.90
2018-12-05T19:33:42.441Z,0.90
2018-12-05T19:36:09.891Z,0.90
2018-12-05T19:38:37.495Z,0.90
2018-12-05T19:41:05.815Z,1.00
2018-12-05T19:43:33.580Z,1.10
2018-12-05T19:46:01.046Z,1.10
2018-12-05T19:48:28.532Z,1.20
2018-12-05T19:50:56.110Z,1.30
2018-12-05T19:53:23.571Z,1.30
2018-12-05T19:55:51.079Z,1.40
2018-12-05T19:58:18.552Z,1.50
2018-12-05T20:00:46.037Z,1.40
2018-12-05T20:03:13.644Z,1.50
2018-12-05T20:05:41.093Z,1.40
2018-12-05T20:08:08.616Z,1.40
2018-12-05T20:10:36.072Z,1.30
2018-12-05T20:13:03.634Z,1.30
2018-12-05T20:15:31.210Z,1.10
2018-12-05T20:17:58.890Z,1.00
2018-12-05T20:20:26.384Z,0.90
2018-12-05T20:22:53.880Z,0.80
2018-12-05T20:25:21.372Z,0.70
2018-12-05T20:27:48.816Z,0.60
2018-12-05T20:30:16.430Z,0.50
2018-12-05T20:36:02.436Z,0.30
2018-12-05T20:38:29.896Z,0.30
2018-12-05T20:40:57.461Z,0.20
2018-12-05T20:43:25.104Z,0.10
2018-12-05T20:45:52.588Z,0.10
2018-12-05T20:48:20.216Z,0.10
2018-12-05T20:50:47.691Z,0.10
2018-12-05T20:53:15.164Z,0.30
2018-12-05T20:55:42.611Z,0.40
2018-12-05T20:58:10.071Z,0.60
2018-12-05T21:00:37.668Z,0.70
2018-12-05T21:03:05.182Z,0.70
2018-12-05T21:05:32.646Z,0.70
2018-12-05T21:08:00.095Z,0.70
2018-12-05T21:10:27.702Z,0.70
2018-12-05T21:12:55.360Z,0.70
2018-12-05T21:15:22.794Z,0.70
2018-12-05T21:17:50.295Z,0.70
2018-12-05T21:20:17.760Z,0.80
2018-12-05T21:22:47.270Z,0.90
2018-12-05T21:25:15.003Z,1.00
2018-12-05T21:27:42.727Z,0.90
2018-12-05T21:30:10.330Z,0.90
2018-12-05T21:32:37.783Z,1.00
2018-12-05T21:35:05.406Z,1.00
2018-12-05T21:37:32.878Z,1.00
2018-12-05T21:40:00.368Z,1.10
2018-12-05T21:42:28.338Z,1.10
2018-12-05T21:44:55.924Z,1.10
2018-12-05T21:47:23.520Z,1.10
2018-12-05T21:49:51.212Z,1.10
2018-12-05T21:52:18.981Z,1.10
2018-12-05T21:54:46.586Z,1.10
2018-12-05T21:57:14.511Z,1.20
2018-12-05T21:59:42.208Z,1.10
2018-12-05T22:02:09.871Z,1.10
2018-12-05T22:04:37.362Z,1.00
2018-12-05T22:07:05.317Z,1.00
2018-12-05T22:09:33.160Z,1.00
2018-12-05T22:12:00.630Z,1.00
2018-12-05T22:14:28.198Z,1.00
2018-12-05T22:16:55.695Z,1.00
2018-12-05T22:19:23.186Z,1.00
2018-12-05T22:21:50.844Z,1.00
2018-12-05T22:26:52.619Z,1.10
2018-12-05T22:29:20.072Z,1.10
2018-12-05T22:31:47.787Z,1.10
2018-12-05T22:34:15.242Z,1.20
2018-12-05T22:36:42.691Z,1.20
2018-12-05T22:39:10.162Z,1.20
2018-12-05T22:41:37.623Z,1.20
2018-12-05T22:44:05.119Z,1.10
2018-12-05T22:46:32.563Z,1.10
2018-12-05T22:49:00.034Z,1.10
2018-12-05T22:51:27.621Z,1.30
2018-12-05T22:53:55.096Z,1.30
2018-12-05T22:56:22.605Z,1.30
2018-12-05T22:58:50.107Z,1.30
2018-12-05T23:01:17.733Z,1.20
2018-12-05T23:03:45.191Z,1.10
2018-12-05T23:06:12.696Z,1.00
2018-12-05T23:08:40.199Z,1.10
2018-12-05T23:11:07.688Z,1.10
2018-12-05T23:13:35.294Z,1.30
2018-12-05T23:16:02.887Z,1.40
2018-12-05T23:18:30.326Z,1.40
2018-12-05T23:20:57.792Z,1.30
2018-12-05T23:23:25.283Z,1.20
2018-12-05T23:25:52.890Z,1.20
2018-12-05T23:28:20.375Z,1.20
2018-12-05T23:30:47.857Z,1.10
2018-12-05T23:33:15.334Z,1.10
2018-12-05T23:35:42.813Z,1.20
2018-12-05T23:38:10.288Z,1.20
2018-12-05T23:40:37.775Z,1.20
2018-12-05T23:43:05.378Z,1.10
2018-12-05T23:45:33.075Z,1.00
2018-12-05T23:48:00.893Z,0.90
2018-12-05T23:50:28.351Z,0.90
2018-12-05T23:52:55.794Z,0.80
2018-12-05T23:55:23.278Z,0.80
2018-12-05T23:57:50.734Z,0.70
